Time;durP1;ratioP1;P1;durP2;ratioP2;P2;SDS_P1;SDS_P2;PMS_P1;PMS_P2;Temp;Humidity;BMP_temperature;BMP_pressure;BME280_temperature;BME280_humidity;BME280_pressure;Samples;Min_cycle;Max_cycle;Signal;HPM_P1;HPM_P2
2022/02/25 00:00:15;;;;;;;7.55;2.90;;;;;;;7.86;59.35;99837.94;1750689;82;20878;-70
2022/02/25 00:02:43;;;;;;;4.17;2.00;;;;;;;7.78;59.38;99849.88;1751063;82;21010;-69
2022/02/25 00:05:09;;;;;;;5.40;2.50;;;;;;;7.65;59.21;99852.70;1750772;82;21018;-70
2022/02/25 00:07:35;;;;;;;6.45;3.08;;;;;;;7.53;59.11;99848.19;1756653;81;20958;-70
2022/02/25 00:10:01;;;;;;;8.05;2.87;;;;;;;7.42;59.09;99849.34;1758607;81;20990;-69
2022/02/25 00:12:27;;;;;;;8.23;2.65;;;;;;;7.33;59.07;99862.27;1758568;81;21029;-69
2022/02/25 00:14:54;;;;;;;7.05;2.70;;;;;;;7.22;59.08;99866.54;1758982;81;21584;-69
2022/02/25 00:17:20;;;;;;;4.85;2.10;;;;;;;7.15;59.12;99890.71;1759055;81;21123;-69
2022/02/25 00:19:46;;;;;;;9.35;3.08;;;;;;;7.05;59.17;99891.34;1758851;81;21001;-69
2022/02/25 00:22:12;;;;;;;5.00;2.47;;;;;;;6.97;59.22;99890.81;1758951;81;20992;-69
2022/02/25 00:24:38;;;;;;;7.17;3.00;;;;;;;6.88;59.34;99902.87;1758810;81;21033;-69
2022/02/25 00:27:05;;;;;;;7.42;2.50;;;;;;;6.78;59.46;99908.78;1787463;80;20974;-69
2022/02/25 00:29:31;;;;;;;5.50;1.50;;;;;;;6.67;59.60;99911.70;1789768;80;21030;-69
2022/02/25 00:31:56;;;;;;;7.30;2.70;;;;;;;6.55;59.82;99912.44;1790080;80;20942;-69
2022/02/25 00:34:22;;;;;;;7.17;2.22;;;;;;;6.43;59.95;99921.16;1789374;80;20973;-69
2022/02/25 00:36:49;;;;;;;7.62;2.67;;;;;;;6.34;60.21;99932.66;1790178;80;20962;-69
2022/02/25 00:39:15;;;;;;;6.30;2.70;;;;;;;6.24;60.41;99930.61;1789936;80;21310;-69
2022/02/25 00:41:41;;;;;;;4.37;1.52;;;;;;;6.16;60.62;99929.21;1789987;78;21135;-69
2022/02/25 00:44:07;;;;;;;8.25;2.50;;;;;;;6.08;60.85;99952.98;1789918;80;21017;-70
2022/02/25 00:46:33;;;;;;;2.67;1.52;;;;;;;6.02;61.16;99952.25;1759123;80;21001;-69
2022/02/25 00:48:59;;;;;;;5.22;2.17;;;;;;;5.90;61.66;99976.80;1790004;80;21459;-69
2022/02/25 00:51:25;;;;;;;5.40;3.40;;;;;;;5.79;62.04;99985.41;1790176;80;20977;-69
2022/02/25 00:53:51;;;;;;;3.12;1.87;;;;;;;5.70;62.28;99985.80;1790027;78;21211;-69
2022/02/25 00:56:17;;;;;;;3.22;1.80;;;;;;;5.63;62.59;99991.86;1789649;78;21010;-69
2022/02/25 00:58:43;;;;;;;2.62;1.20;;;;;;;5.56;62.91;100001.37;1790121;80;20906;-69
2022/02/25 01:01:09;;;;;;;4.30;1.90;;;;;;;5.47;63.22;100009.68;1789886;80;20967;-69
2022/02/25 01:03:35;;;;;;;3.30;1.52;;;;;;;5.39;63.48;100001.64;1755570;80;20894;-69
2022/02/25 01:06:02;;;;;;;3.60;1.25;;;;;;;5.29;63.94;100018.88;1758444;81;21125;-69
2022/02/25 01:08:28;;;;;;;1.60;0.80;;;;;;;5.22;64.31;100017.79;1750803;81;21539;-69
2022/02/25 01:10:54;;;;;;;2.30;1.00;;;;;;;5.12;64.76;100031.53;1750693;81;20970;-70
2022/02/25 01:13:20;;;;;;;4.12;1.57;;;;;;;5.02;65.21;100035.53;1750599;81;20894;-69
2022/02/25 01:15:46;;;;;;;5.37;2.17;;;;;;;4.92;65.55;100041.34;1750836;82;20991;-69
2022/02/25 01:18:12;;;;;;;6.37;2.10;;;;;;;4.84;65.85;100024.03;1750548;82;21063;-69
2022/02/25 01:20:38;;;;;;;7.97;3.10;;;;;;;4.78;66.09;100019.81;1750696;82;20883;-69
2022/02/25 01:23:04;;;;;;;2.25;1.72;;;;;;;4.67;66.40;100019.48;1750705;82;21022;-69
2022/02/25 01:25:30;;;;;;;10.75;4.53;;;;;;;4.62;66.66;100019.55;1759143;80;21554;-69
2022/02/25 01:27:56;;;;;;;4.78;2.77;;;;;;;4.58;66.81;100019.47;1781622;80;21451;-69
2022/02/25 01:30:22;;;;;;;6.25;4.78;;;;;;;4.54;66.98;100043.52;1781708;80;21996;-69
2022/02/25 01:32:48;;;;;;;4.67;3.67;;;;;;;4.52;67.14;100053.89;1781638;80;20998;-69
2022/02/25 01:35:14;;;;;;;5.33;2.98;;;;;;;4.49;67.32;100062.93;1781541;80;21033;-69
2022/02/25 01:37:40;;;;;;;2.05;1.27;;;;;;;4.48;67.48;100070.50;1781799;80;21061;-69
2022/02/25 01:40:08;;;;;;;2.02;1.50;;;;;;;4.47;67.66;100079.38;1781639;80;20990;-69
2022/02/25 01:42:48;;;;;;;2.65;1.37;;;;;;;4.44;67.80;100079.66;1781557;80;21166;-69
2022/02/25 01:45:15;;;;;;;2.77;1.32;;;;;;;4.46;67.95;100080.38;1781660;80;20990;-69
2022/02/25 01:47:41;;;;;;;2.00;1.20;;;;;;;4.45;68.11;100089.26;1781609;80;21050;-69
2022/02/25 01:50:08;;;;;;;1.05;0.80;;;;;;;4.44;68.26;100082.30;1781672;80;21475;-69
2022/02/25 01:52:34;;;;;;;1.90;1.12;;;;;;;4.43;68.42;100089.86;1781698;80;20967;-69
2022/02/25 01:55:00;;;;;;;4.30;1.87;;;;;;;4.40;68.53;100094.11;1781695;80;21001;-69
2022/02/25 01:57:26;;;;;;;1.80;1.30;;;;;;;4.39;68.59;100093.78;1781112;79;20954;-69
2022/02/25 01:59:52;;;;;;;3.25;1.82;;;;;;;4.39;68.68;100094.27;1781606;80;21014;-69
2022/02/25 02:02:18;;;;;;;3.50;2.15;;;;;;;4.36;68.84;100090.06;1781729;80;21526;-69
2022/02/25 02:04:44;;;;;;;4.65;3.05;;;;;;;4.33;68.96;100083.75;1781528;80;21463;-69
2022/02/25 02:07:10;;;;;;;3.80;2.47;;;;;;;4.33;69.10;100107.98;1781464;80;21955;-69
2022/02/25 02:09:36;;;;;;;5.28;3.35;;;;;;;4.32;69.21;100096.62;1747882;82;21530;-69
2022/02/25 02:12:03;;;;;;;9.60;5.80;;;;;;;4.32;69.30;100117.73;1744623;82;20999;-69
2022/02/25 02:14:29;;;;;;;3.67;2.80;;;;;;;4.30;69.37;100110.42;1744586;82;21038;-69
2022/02/25 02:16:57;;;;;;;1.90;1.72;;;;;;;4.30;69.47;100120.98;1744531;81;21049;-69
2022/02/25 02:19:24;;;;;;;2.58;1.52;;;;;;;4.29;69.54;100127.73;1744381;82;21321;-69
2022/02/25 02:21:54;;;;;;;3.20;2.08;;;;;;;4.26;69.62;100128.82;1744664;82;21582;-69
2022/02/25 02:24:21;;;;;;;2.70;1.70;;;;;;;4.26;69.71;100123.54;1744616;81;20995;-69
2022/02/25 02:26:48;;;;;;;1.77;1.50;;;;;;;4.25;69.77;100126.33;1749057;82;21616;-69
2022/02/25 02:29:14;;;;;;;2.60;1.50;;;;;;;4.22;69.83;100127.42;1750889;82;21029;-69
2022/02/25 02:31:40;;;;;;;1.92;1.07;;;;;;;4.24;69.87;100125.98;1763063;81;21113;-69
2022/02/25 02:34:12;;;;;;;2.55;1.37;;;;;;;4.24;69.88;100122.02;1750611;82;21126;-69
2022/02/25 02:36:39;;;;;;;2.02;1.17;;;;;;;4.23;69.88;100126.45;1764488;81;21474;-68
2022/02/25 02:39:05;;;;;;;3.55;1.40;;;;;;;4.20;69.89;100133.81;1674208;85;21042;-68
2022/02/25 02:41:32;;;;;;;3.47;1.90;;;;;;;4.18;69.88;100137.92;1750433;81;21033;-69
2022/02/25 02:43:58;;;;;;;3.35;2.70;;;;;;;4.17;69.84;100145.48;1758372;81;21105;-69
2022/02/25 02:46:23;;;;;;;4.37;3.20;;;;;;;4.18;69.79;100153.76;1752618;81;20847;-69
2022/02/25 02:48:50;;;;;;;3.92;2.55;;;;;;;4.18;69.73;100152.44;1750682;81;21003;-68
2022/02/25 02:51:16;;;;;;;4.58;3.15;;;;;;;4.17;69.69;100167.91;1750602;82;21777;-69
2022/02/25 02:53:42;;;;;;;4.15;2.22;;;;;;;4.16;69.63;100163.59;1750496;82;21495;-69
2022/02/25 02:56:09;;;;;;;5.75;1.90;;;;;;;4.18;69.56;100175.34;1750386;82;21869;-69
2022/02/25 02:58:35;;;;;;;3.50;1.47;;;;;;;4.18;69.46;100172.71;1750553;82;21022;-69
2022/02/25 03:01:03;;;;;;;4.53;1.42;;;;;;;4.17;69.36;100174.51;1750299;80;21005;-68
2022/02/25 03:03:30;;;;;;;6.05;1.42;;;;;;;4.17;69.21;100178.47;1749313;80;37611;-69
2022/02/25 03:05:56;;;;;;;2.15;1.12;;;;;;;4.19;69.07;100197.63;1750223;82;21001;-69
2022/02/25 03:08:22;;;;;;;6.53;2.02;;;;;;;4.20;68.89;100197.14;1755541;81;22109;-69
2022/02/25 03:10:48;;;;;;;3.25;1.22;;;;;;;4.20;68.69;100209.86;1758318;81;20990;-69
2022/02/25 03:13:14;;;;;;;2.70;1.40;;;;;;;4.19;68.49;100207.34;1758727;81;21065;-69
2022/02/25 03:15:42;;;;;;;2.25;1.10;;;;;;;4.20;68.22;100217.78;1758608;81;21053;-69
2022/02/25 03:18:08;;;;;;;2.87;1.55;;;;;;;4.20;68.00;100213.82;1758646;81;21520;-69
2022/02/25 03:20:34;;;;;;;3.20;1.42;;;;;;;4.20;67.72;100220.42;1758674;81;21798;-69
2022/02/25 03:23:00;;;;;;;3.35;1.77;;;;;;;4.19;67.39;100229.30;1758497;81;21048;-69
2022/02/25 03:25:26;;;;;;;6.80;1.98;;;;;;;4.18;67.13;100227.65;1758665;81;20994;-69
2022/02/25 03:27:52;;;;;;;4.17;1.80;;;;;;;4.16;66.82;100220.33;1760442;80;21046;-69
2022/02/25 03:30:18;;;;;;;4.83;2.90;;;;;;;4.18;66.55;100233.41;1766055;80;21045;-69
2022/02/25 03:32:44;;;;;;;3.30;1.57;;;;;;;4.18;66.25;100238.20;1793160;80;21161;-69
2022/02/25 03:35:11;;;;;;;5.47;1.98;;;;;;;4.15;66.03;100237.13;1793006;80;20942;-69
2022/02/25 03:37:37;;;;;;;3.58;1.67;;;;;;;4.15;65.79;100243.72;1784491;80;21029;-69
2022/02/25 03:40:06;;;;;;;5.17;1.37;;;;;;;4.15;65.53;100252.95;1758435;81;20879;-69
2022/02/25 03:42:32;;;;;;;6.33;2.15;;;;;;;4.10;65.27;100259.13;1758862;81;20998;-69
2022/02/25 03:44:58;;;;;;;7.83;2.72;;;;;;;4.08;65.07;100238.66;1758675;81;21157;-69
2022/02/25 03:47:24;;;;;;;3.95;1.92;;;;;;;4.02;64.85;100258.47;1758918;81;20955;-69
2022/02/25 03:49:50;;;;;;;5.08;1.70;;;;;;;3.95;64.65;100264.39;1758714;81;21017;-69
2022/02/25 03:52:16;;;;;;;1.60;0.88;;;;;;;3.89;64.47;100272.84;1758391;81;21468;-69
2022/02/25 03:54:42;;;;;;;2.33;1.30;;;;;;;3.83;64.27;100273.38;1756994;81;21475;-69
2022/02/25 03:57:08;;;;;;;3.98;1.62;;;;;;;3.79;64.10;100269.31;1757740;80;21144;-69
2022/02/25 03:59:34;;;;;;;3.20;1.30;;;;;;;3.76;63.89;100279.66;1758640;81;20982;-69
2022/02/25 04:02:00;;;;;;;4.50;1.65;;;;;;;3.74;63.71;100282.05;1758774;81;21041;-69
2022/02/25 04:04:27;;;;;;;4.80;2.35;;;;;;;3.73;63.55;100294.89;1758690;81;21077;-69
2022/02/25 04:06:52;;;;;;;4.58;2.30;;;;;;;3.74;63.42;100292.59;1758653;81;20977;-69
2022/02/25 04:09:19;;;;;;;4.80;1.45;;;;;;;3.75;63.36;100302.19;1757984;81;21132;-69
2022/02/25 04:11:45;;;;;;;1.75;0.88;;;;;;;3.77;63.30;100306.83;1757924;81;20966;-69
2022/02/25 04:14:12;;;;;;;5.25;1.45;;;;;;;3.81;63.27;100314.84;1753435;81;20975;-69
2022/02/25 04:16:38;;;;;;;3.33;1.57;;;;;;;3.83;63.26;100322.16;1757874;81;21565;-69
2022/02/25 04:19:04;;;;;;;2.92;1.60;;;;;;;3.82;63.27;100326.59;1759400;81;21691;-69
2022/02/25 04:21:31;;;;;;;3.42;1.80;;;;;;;3.80;63.30;100319.79;1759389;81;21151;-69
2022/02/25 04:23:57;;;;;;;4.78;1.92;;;;;;;3.80;63.32;100323.23;1758977;81;21072;-69
2022/02/25 04:26:23;;;;;;;6.60;2.10;;;;;;;3.83;63.32;100322.16;1759734;81;21013;-69
2022/02/25 04:28:50;;;;;;;4.12;2.12;;;;;;;3.86;63.32;100335.09;1758592;81;21450;-69
2022/02/25 04:31:17;;;;;;;3.80;1.80;;;;;;;3.82;63.36;100329.23;1758730;81;21109;-69
2022/02/25 04:33:43;;;;;;;1.72;1.20;;;;;;;3.80;63.39;100338.25;1759093;81;21133;-69
2022/02/25 04:36:09;;;;;;;3.42;1.52;;;;;;;3.74;63.44;100346.17;1757856;81;20903;-69
2022/02/25 04:38:35;;;;;;;2.70;2.22;;;;;;;3.68;63.49;100347.17;1758840;81;20989;-69
2022/02/25 04:41:02;;;;;;;5.00;3.55;;;;;;;3.65;63.57;100352.23;1758919;81;20994;-69
2022/02/25 04:43:28;;;;;;;3.67;3.15;;;;;;;3.63;63.64;100355.93;1758686;81;21087;-69
2022/02/25 04:45:56;;;;;;;6.53;4.70;;;;;;;3.59;63.72;100354.54;1758307;81;21786;-69
2022/02/25 04:48:23;;;;;;;7.22;3.52;;;;;;;3.60;63.83;100350.44;1758949;81;21018;-69
2022/02/25 04:50:49;;;;;;;6.10;3.42;;;;;;;3.57;63.90;100355.13;1729163;82;21081;-69
2022/02/25 04:53:15;;;;;;;2.95;1.35;;;;;;;3.52;63.97;100349.74;1743992;81;21531;-69
2022/02/25 04:55:43;;;;;;;1.77;1.20;;;;;;;3.45;64.09;100360.44;1759350;80;20906;-69
2022/02/25 04:58:09;;;;;;;5.40;1.98;;;;;;;3.40;64.17;100366.58;1759248;81;21840;-69
2022/02/25 05:00:35;;;;;;;3.17;1.50;;;;;;;3.38;64.29;100371.12;1757867;81;20991;-69
2022/02/25 05:03:01;;;;;;;4.35;1.50;;;;;;;3.36;64.38;100375.70;1758096;80;22394;-69
2022/02/25 05:05:27;;;;;;;4.25;1.45;;;;;;;3.34;64.46;100372.33;1756022;80;21590;-69
2022/02/25 05:07:53;;;;;;;7.92;2.10;;;;;;;3.30;64.51;100373.57;1759053;81;21128;-69
2022/02/25 05:10:19;;;;;;;4.65;1.55;;;;;;;3.30;64.56;100386.75;1758957;81;21166;-69
2022/02/25 05:12:45;;;;;;;3.80;2.00;;;;;;;3.27;64.59;100395.38;1759290;81;20973;-69
2022/02/25 05:20:40;;;;;;;7.87;2.95;;;;;;;3.09;64.72;100400.33;1753157;81;21073;-69
2022/02/25 05:23:06;;;;;;;4.75;2.77;;;;;;;3.08;64.76;100410.50;1753085;81;21126;-69
2022/02/25 05:25:33;;;;;;;8.33;2.92;;;;;;;3.03;64.80;100417.91;1752712;81;21042;-69
2022/02/25 05:28:00;;;;;;;6.92;3.55;;;;;;;3.00;64.80;100420.80;1753148;81;21065;-69
2022/02/25 05:30:26;;;;;;;8.68;3.83;;;;;;;2.93;64.81;100431.45;1753205;81;21562;-69
2022/02/25 05:32:53;;;;;;;11.22;3.30;;;;;;;2.86;64.85;100439.47;1756561;81;21029;-68
2022/02/25 05:35:20;;;;;;;6.58;2.95;;;;;;;2.83;64.92;100446.30;1759482;81;21152;-68
2022/02/25 05:37:47;;;;;;;11.45;4.60;;;;;;;2.81;64.95;100450.86;1759211;81;20974;-68
2022/02/25 05:40:15;;;;;;;15.53;6.90;;;;;;;2.78;65.01;100449.79;1759333;81;21553;-68
2022/02/25 05:42:41;;;;;;;16.30;8.40;;;;;;;2.78;65.04;100457.69;1759160;81;20978;-69
2022/02/25 05:45:08;;;;;;;5.17;2.92;;;;;;;2.74;65.08;100462.83;1759375;81;21013;-69
2022/02/25 05:47:35;;;;;;;12.13;2.20;;;;;;;2.71;65.13;100460.44;1759287;81;21066;-69
2022/02/25 05:50:03;;;;;;;2.40;1.40;;;;;;;2.68;65.16;100465.91;1759066;81;20977;-69
2022/02/25 05:52:29;;;;;;;4.70;2.12;;;;;;;2.62;65.21;100465.08;1731629;81;21092;-69
2022/02/25 05:54:55;;;;;;;8.38;1.90;;;;;;;2.57;65.25;100472.50;1759355;81;20998;-69
2022/02/25 05:57:21;;;;;;;8.55;2.60;;;;;;;2.51;65.31;100486.95;1758997;81;20985;-69
2022/02/25 05:59:47;;;;;;;10.15;3.05;;;;;;;2.46;65.37;100489.92;1759309;81;21143;-69
2022/02/25 06:02:14;;;;;;;9.60;3.90;;;;;;;2.47;65.45;100493.39;1759099;81;20967;-69
2022/02/25 06:04:40;;;;;;;11.65;4.30;;;;;;;2.47;65.49;100500.81;1759355;81;20993;-68
2022/02/25 06:07:06;;;;;;;7.58;1.77;;;;;;;2.50;65.55;100505.00;1759148;81;21556;-69
2022/02/25 06:09:32;;;;;;;3.15;1.25;;;;;;;2.50;65.60;100507.16;1756800;81;21458;-69
2022/02/25 06:11:58;;;;;;;3.47;1.37;;;;;;;2.55;65.65;100515.20;1755556;81;21509;-69
2022/02/25 06:14:24;;;;;;;4.20;1.47;;;;;;;2.57;65.74;100526.46;1755898;81;21537;-68
2022/02/25 06:16:50;;;;;;;2.17;1.30;;;;;;;2.58;65.82;100527.65;1756080;81;20990;-69
2022/02/25 06:19:16;;;;;;;4.45;0.90;;;;;;;2.60;65.89;100530.17;1755698;81;21044;-69
2022/02/25 06:21:42;;;;;;;3.67;1.30;;;;;;;2.60;65.98;100534.12;1755973;81;20998;-69
2022/02/25 06:24:08;;;;;;;8.55;2.85;;;;;;;2.58;66.07;100534.70;1755973;81;21111;-69
2022/02/25 06:26:34;;;;;;;6.00;2.20;;;;;;;2.60;66.15;100532.34;1756019;81;21033;-69
2022/02/25 06:29:00;;;;;;;6.70;2.27;;;;;;;2.68;66.23;100533.05;1756009;81;20977;-69
2022/02/25 06:31:26;;;;;;;5.15;2.20;;;;;;;2.67;66.26;100543.23;1755948;81;21450;-69
2022/02/25 06:33:52;;;;;;;4.15;1.40;;;;;;;2.66;66.34;100549.45;1756012;81;21471;-68
2022/02/25 06:36:18;;;;;;;6.42;1.60;;;;;;;2.80;66.33;100556.67;1755707;81;21084;-69
2022/02/25 06:38:46;;;;;;;7.10;2.70;;;;;;;2.78;66.43;100556.44;1754449;81;21001;-69
2022/02/25 06:41:12;;;;;;;5.62;2.00;;;;;;;2.80;66.55;100561.94;1753797;81;21040;-69
2022/02/25 06:43:38;;;;;;;5.15;2.35;;;;;;;2.80;66.69;100563.73;1750312;81;21519;-69
2022/02/25 06:46:04;;;;;;;5.72;3.25;;;;;;;2.90;66.79;100563.38;1755987;81;21076;-69
2022/02/25 06:48:30;;;;;;;7.67;2.77;;;;;;;3.00;66.87;100573.57;1755942;81;21080;-69
2022/02/25 06:50:56;;;;;;;4.17;2.92;;;;;;;3.11;66.94;100574.91;1756018;81;20978;-69
2022/02/25 06:53:22;;;;;;;11.12;3.52;;;;;;;3.21;67.04;100571.92;1755987;81;20990;-69
2022/02/25 06:55:48;;;;;;;18.62;4.80;;;;;;;3.28;67.14;100578.39;1755956;80;20879;-69
2022/02/25 06:58:14;;;;;;;16.95;7.08;;;;;;;3.38;67.19;100586.41;1755857;81;21399;-69
2022/02/25 07:00:40;;;;;;;8.58;3.95;;;;;;;3.51;67.24;100588.00;1755913;81;21157;-69
2022/02/25 07:03:06;;;;;;;11.83;4.70;;;;;;;3.64;67.31;100584.38;1752388;80;21619;-70
2022/02/25 07:05:39;;;;;;;9.65;3.62;;;;;;;3.75;67.35;100590.97;1747897;81;21009;-70
2022/02/25 07:08:04;;;;;;;6.83;3.02;;;;;;;3.77;67.40;100606.17;1750817;81;21018;-71
2022/02/25 07:10:31;;;;;;;10.03;3.62;;;;;;;3.72;67.43;100600.45;1741333;82;21101;-70
2022/02/25 07:12:57;;;;;;;10.63;3.33;;;;;;;3.74;67.48;100601.15;1751570;80;21268;-70
2022/02/25 07:15:24;;;;;;;9.93;3.35;;;;;;;3.67;67.51;100602.59;1754322;80;21664;-70
2022/02/25 07:17:50;;;;;;;21.25;4.20;;;;;;;3.71;67.57;100602.72;1751561;80;21076;-70
2022/02/25 07:20:16;;;;;;;10.48;4.65;;;;;;;3.82;67.60;100606.66;1753632;80;20994;-70
2022/02/25 07:22:42;;;;;;;9.05;3.92;;;;;;;3.91;67.62;100608.55;1751940;80;20990;-70
2022/02/25 07:25:08;;;;;;;7.80;3.70;;;;;;;3.98;67.66;100605.78;1753020;80;21137;-70
2022/02/25 07:27:34;;;;;;;8.10;3.80;;;;;;;4.04;67.66;100609.28;1750834;80;21498;-70
2022/02/25 07:30:00;;;;;;;18.57;4.65;;;;;;;4.10;67.68;100623.77;1754734;80;21501;-70
2022/02/25 07:32:26;;;;;;;8.35;3.62;;;;;;;4.12;67.66;100617.39;1745769;80;21014;-70
2022/02/25 07:34:53;;;;;;;12.37;5.33;;;;;;;4.22;67.68;100615.69;1753420;80;20998;-70
2022/02/25 07:37:19;;;;;;;8.78;3.70;;;;;;;4.25;67.64;100615.47;1746534;80;21262;-70
2022/02/25 07:39:45;;;;;;;8.75;3.42;;;;;;;4.24;67.63;100621.70;1755824;80;21474;-70
2022/02/25 07:42:11;;;;;;;7.37;3.65;;;;;;;4.29;67.60;100634.02;1748170;80;20995;-70
2022/02/25 07:44:37;;;;;;;11.48;4.03;;;;;;;4.34;67.58;100635.83;1747832;80;20981;-70
2022/02/25 07:47:03;;;;;;;11.45;3.62;;;;;;;4.45;67.55;100638.44;1759624;80;21025;-70
2022/02/25 07:49:29;;;;;;;9.63;4.85;;;;;;;4.54;67.51;100645.59;1752673;80;21061;-70
2022/02/25 07:51:55;;;;;;;9.75;3.60;;;;;;;4.48;67.46;100644.78;1751628;80;21111;-70
2022/02/25 07:54:21;;;;;;;13.72;5.45;;;;;;;4.44;67.43;100653.91;1751353;80;21073;-70
2022/02/25 07:56:47;;;;;;;9.85;4.20;;;;;;;4.34;67.40;100647.70;1744455;80;20983;-70
2022/02/25 07:59:14;;;;;;;12.58;5.28;;;;;;;4.25;67.35;100653.73;1746413;80;21010;-70
2022/02/25 08:01:41;;;;;;;17.10;6.08;;;;;;;4.15;67.35;100664.65;1746382;80;21574;-71
2022/02/25 08:04:08;;;;;;;10.97;4.97;;;;;;;4.13;67.36;100662.62;1758958;80;21001;-71
2022/02/25 08:06:35;;;;;;;13.83;6.55;;;;;;;4.10;67.35;100676.07;1760341;80;21021;-70
2022/02/25 08:09:01;;;;;;;12.82;6.28;;;;;;;4.14;67.40;100672.23;1751947;80;21021;-70
2022/02/25 08:11:27;;;;;;;12.45;5.90;;;;;;;4.20;67.41;100665.13;1739654;81;21498;-70
2022/02/25 08:13:53;;;;;;;12.58;5.95;;;;;;;4.18;67.41;100669.70;1753505;80;22037;-71
2022/02/25 08:16:21;;;;;;;15.75;6.78;;;;;;;4.19;67.41;100665.23;1748629;80;21380;-70
2022/02/25 08:18:47;;;;;;;19.77;8.08;;;;;;;4.30;67.44;100671.34;1760648;80;21517;-70
2022/02/25 08:21:14;;;;;;;10.18;4.12;;;;;;;4.41;67.41;100681.05;1752651;80;21026;-70
2022/02/25 08:23:40;;;;;;;10.68;4.50;;;;;;;4.58;67.44;100672.59;1758035;80;21112;-70
2022/02/25 08:26:06;;;;;;;15.63;6.28;;;;;;;4.61;67.33;100678.94;1724076;82;21104;-70
2022/02/25 08:28:32;;;;;;;14.83;5.42;;;;;;;4.61;67.28;100685.55;1693935;84;21022;-70
2022/02/25 08:30:58;;;;;;;17.10;7.37;;;;;;;4.58;67.19;100680.99;1721921;81;20986;-71
2022/02/25 08:33:24;;;;;;;11.93;5.47;;;;;;;4.66;67.15;100682.53;1706565;82;20899;-69
2022/02/25 08:35:50;;;;;;;15.38;6.40;;;;;;;4.68;67.11;100676.16;1711383;82;21029;-70
2022/02/25 08:38:19;;;;;;;9.60;4.97;;;;;;;4.69;67.06;100685.77;1704856;82;21720;-70
2022/02/25 08:40:45;;;;;;;9.83;4.47;;;;;;;4.79;66.99;100685.84;1707227;82;21060;-69
2022/02/25 08:43:12;;;;;;;12.35;4.10;;;;;;;4.93;66.95;100682.91;1703195;82;21059;-70
2022/02/25 08:45:44;;;;;;;13.05;5.12;;;;;;;4.96;66.79;100682.16;1730525;81;21009;-70
2022/02/25 08:48:11;;;;;;;10.23;4.72;;;;;;;5.05;66.75;100680.58;1692875;83;21090;-70
2022/02/25 08:50:37;;;;;;;8.48;3.37;;;;;;;5.21;66.65;100672.19;1700679;82;21682;-71
2022/02/25 08:53:03;;;;;;;9.58;3.70;;;;;;;5.20;66.38;100684.59;1704132;83;21019;-70
2022/02/25 08:55:29;;;;;;;10.03;3.83;;;;;;;5.21;66.22;100690.21;1705059;82;21581;-71
2022/02/25 08:57:55;;;;;;;6.85;2.67;;;;;;;5.26;66.08;100693.33;1698991;82;21082;-71
2022/02/25 09:00:23;;;;;;;12.73;5.90;;;;;;;5.35;65.94;100693.02;1704380;82;21074;-70
2022/02/25 09:02:49;;;;;;;15.08;5.97;;;;;;;5.41;65.79;100697.81;1711588;82;21527;-71
2022/02/25 09:05:16;;;;;;;14.05;5.50;;;;;;;5.46;65.65;100700.41;1707997;82;21526;-71
2022/02/25 09:07:42;;;;;;;13.55;5.25;;;;;;;5.44;65.44;100690.45;1703070;82;21045;-71
2022/02/25 09:10:09;;;;;;;35.98;13.18;;;;;;;5.21;65.14;100698.14;1712772;82;21025;-70
2022/02/25 09:12:35;;;;;;;23.32;8.13;;;;;;;5.20;65.09;100704.42;1698983;82;21019;-70
2022/02/25 09:15:07;;;;;;;16.05;6.65;;;;;;;5.34;64.96;100700.14;1679487;84;21199;-70
2022/02/25 09:17:33;;;;;;;11.83;4.42;;;;;;;5.43;64.78;100707.28;1701851;82;21030;-70
2022/02/25 09:19:59;;;;;;;14.13;4.37;;;;;;;5.37;64.47;100709.13;1707954;82;21140;-70
2022/02/25 09:22:25;;;;;;;31.73;10.55;;;;;;;5.42;64.25;100701.63;1696527;83;21030;-70
2022/02/25 09:24:51;;;;;;;25.77;12.63;;;;;;;5.53;64.11;100704.20;1683188;82;21034;-70
2022/02/25 09:27:17;;;;;;;17.48;7.58;;;;;;;5.71;63.98;100711.55;1714833;82;21159;-70
2022/02/25 09:29:43;;;;;;;19.35;7.28;;;;;;;5.73;63.66;100707.82;1730673;81;20915;-70
2022/02/25 09:32:09;;;;;;;9.55;3.83;;;;;;;5.80;63.48;100710.78;1731392;82;21018;-70
2022/02/25 09:34:36;;;;;;;9.05;3.50;;;;;;;5.89;63.22;100702.06;1731754;81;20995;-70
2022/02/25 09:37:03;;;;;;;8.85;2.70;;;;;;;5.85;62.85;100704.11;1727522;83;21545;-70
2022/02/25 09:39:30;;;;;;;8.15;2.65;;;;;;;5.77;62.59;100716.34;1727157;82;21158;-70
2022/02/25 09:41:58;;;;;;;7.92;2.25;;;;;;;5.72;62.19;100708.78;1727658;81;21558;-70
2022/02/25 09:44:25;;;;;;;19.40;7.97;;;;;;;5.75;61.87;100711.16;1724853;81;21096;-70
2022/02/25 09:46:51;;;;;;;11.05;4.30;;;;;;;5.78;61.61;100716.19;1693730;81;21608;-70
2022/02/25 09:49:18;;;;;;;9.70;2.70;;;;;;;5.89;61.45;100716.62;1706470;82;21093;-70
2022/02/25 09:51:46;;;;;;;6.90;2.30;;;;;;;6.05;61.25;100719.64;1710954;82;21153;-71
2022/02/25 09:54:18;;;;;;;6.53;2.15;;;;;;;6.02;61.07;100714.58;1716271;82;21565;-70
2022/02/25 09:56:46;;;;;;;6.75;1.98;;;;;;;5.95;60.83;100721.37;1715631;82;21089;-70
2022/02/25 09:59:15;;;;;;;8.93;2.75;;;;;;;6.04;60.66;100719.27;1716206;82;21590;-70
2022/02/25 10:01:42;;;;;;;10.20;3.20;;;;;;;6.26;60.46;100728.84;1713509;82;21125;-69
2022/02/25 10:04:19;;;;;;;11.18;4.70;;;;;;;6.25;60.24;100725.35;1716535;82;21081;-70
2022/02/25 10:06:45;;;;;;;13.28;3.65;;;;;;;6.28;60.01;100733.50;1717359;82;21030;-70
2022/02/25 10:09:34;;;;;;;15.75;5.60;;;;;;;6.26;59.78;100728.33;1712632;82;21069;-69
2022/02/25 10:12:11;;;;;;;17.80;6.67;;;;;;;6.27;59.69;100732.66;1728488;81;21030;-70
2022/02/25 10:14:43;;;;;;;11.03;3.85;;;;;;;6.26;59.59;100727.52;1729019;81;21503;-70
2022/02/25 10:17:21;;;;;;;9.78;3.83;;;;;;;6.26;59.55;100731.48;1728940;81;21172;-71
2022/02/25 10:19:54;;;;;;;10.35;2.87;;;;;;;6.28;59.51;100733.02;1729450;81;21077;-70
2022/02/25 10:22:32;;;;;;;8.85;3.30;;;;;;;6.45;59.50;100729.72;1723240;82;21499;-70
2022/02/25 10:25:07;;;;;;;13.50;3.22;;;;;;;6.62;59.38;100736.66;1713601;82;21574;-70
2022/02/25 10:27:38;;;;;;;8.53;2.67;;;;;;;6.54;59.22;100739.50;1734593;81;21536;-70
2022/02/25 10:30:11;;;;;;;9.68;2.15;;;;;;;6.43;59.06;100741.44;1690832;83;21043;-70
2022/02/25 10:32:50;;;;;;;8.78;2.37;;;;;;;6.28;58.85;100739.64;1731706;81;21026;-70
2022/02/25 10:35:39;;;;;;;5.83;2.33;;;;;;;6.26;58.70;100736.27;1716027;82;21094;-70
2022/02/25 10:38:18;;;;;;;11.00;2.08;;;;;;;6.37;58.71;100732.20;1729874;82;21069;-70
2022/02/25 10:40:51;;;;;;;8.18;2.70;;;;;;;6.42;58.36;100743.73;1744620;81;21109;-70
2022/02/25 10:43:25;;;;;;;6.83;2.60;;;;;;;6.36;58.05;100731.87;1751203;81;21621;-70
2022/02/25 10:45:56;;;;;;;3.95;2.00;;;;;;;6.35;57.84;100739.45;1729289;81;20995;-70
2022/02/25 10:48:31;;;;;;;11.22;3.27;;;;;;;6.44;57.74;100747.91;1726269;82;21517;-69
2022/02/25 10:51:02;;;;;;;11.88;3.85;;;;;;;6.42;57.62;100740.59;1718873;82;21033;-69
2022/02/25 10:53:31;;;;;;;7.03;3.77;;;;;;;6.40;57.53;100730.60;1724530;82;21063;-70
2022/02/25 10:56:06;;;;;;;10.10;4.50;;;;;;;6.30;57.09;100740.33;1756610;80;21138;-69
2022/02/25 10:58:48;;;;;;;11.20;3.37;;;;;;;6.26;57.02;100746.86;1710327;83;21010;-69
2022/02/25 11:01:34;;;;;;;11.50;4.72;;;;;;;6.27;56.84;100744.58;1739898;81;21011;-70
2022/02/25 11:04:07;;;;;;;8.85;2.00;;;;;;;6.39;56.70;100746.65;1711841;82;21073;-70
2022/02/25 11:06:33;;;;;;;12.00;4.00;;;;;;;6.57;56.47;100738.41;1729287;82;21069;-69
2022/02/25 11:09:00;;;;;;;14.75;5.17;;;;;;;6.85;56.29;100740.76;1729445;82;21192;-70
2022/02/25 11:11:26;;;;;;;13.30;4.90;;;;;;;6.97;56.02;100747.59;1706557;82;21009;-70
2022/02/25 11:13:52;;;;;;;15.28;5.00;;;;;;;7.03;55.75;100739.95;1703791;83;21063;-70
2022/02/25 11:16:19;;;;;;;14.55;3.35;;;;;;;7.24;55.69;100733.17;1708093;82;21606;-70
2022/02/25 11:18:48;;;;;;;13.00;3.60;;;;;;;7.56;55.65;100737.33;1681649;82;21004;-71
2022/02/25 11:21:17;;;;;;;8.38;2.37;;;;;;;7.56;55.23;100742.15;1695681;84;21143;-70
2022/02/25 11:23:44;;;;;;;17.10;8.80;;;;;;;7.27;54.84;100743.50;1681116;84;21024;-71
2022/02/25 11:26:13;;;;;;;30.43;13.22;;;;;;;6.97;54.49;100752.41;1747304;82;21528;-71
2022/02/25 11:28:40;;;;;;;18.15;7.67;;;;;;;6.83;54.45;100751.97;1748026;81;21010;-70
2022/02/25 11:31:28;;;;;;;14.58;5.15;;;;;;;6.74;54.36;100758.10;1737818;82;21135;-71
2022/02/25 11:33:55;;;;;;;16.97;5.45;;;;;;;6.57;54.15;100742.38;1739056;82;21929;-70
2022/02/25 11:36:42;;;;;;;26.62;9.40;;;;;;;6.34;53.91;100761.61;1745832;81;21910;-71